Home > Products > Valid Products > TAF

000
FTUS43 KGRR 230100 AAA
TAFBTL
TAF AMD
KBTL 230111Z 2301/2324 06003KT P6SM SCT015
      TEMPO 2301/2302 BKN015
     FM230300 00000KT P6SM SCT020
     FM231000 00000KT 4SM BR SCT005
     FM231500 18007KT P6SM SCT250=



000
FTUS43 KGRR 230100 AAA
TAFBTL
TAF AMD
KBTL 230111Z 2301/2324 06003KT P6SM SCT015
      TEMPO 2301/2302 BKN015
     FM230300 00000KT P6SM SCT020
     FM231000 00000KT 4SM BR SCT005
     FM231500 18007KT P6SM SCT250=



000
FTUS43 KGRR 222300 RRA
TAFAZO
TAF
KAZO 222340Z 2300/2324 00000KT P6SM SCT020
     FM231000 00000KT 4SM BR SCT005
     FM231500 18007KT P6SM SCT250=



000
FTUS43 KGRR 222300 RRA
TAFBTL
TAF
KBTL 222340Z 2300/2324 06003KT P6SM OVC020
     FM230300 00000KT P6SM SCT020
     FM231000 00000KT 4SM BR SCT005
     FM231500 18007KT P6SM SCT250=



000
FTUS43 KGRR 222300 RRA
TAFMKG
TAF
KMKG 222340Z 2300/2324 14004KT P6SM SCT250=



000
FTUS43 KGRR 222300 RRA
TAFJXN
TAF
KJXN 222340Z 2300/2324 02003KT P6SM SCT020
     FM231000 00000KT 4SM BR SCT005
     FM231500 22005KT P6SM SCT250=



000
FTUS43 KGRR 222300 RRA
TAFGRR
TAF
KGRR 222340Z 2300/2324 11003KT P6SM SKC
     FM231000 00000KT 4SM BR SCT005
     FM231500 18008KT P6SM SCT250=



000
FTUS43 KGRR 222300 RRA
TAFLAN
TAF
KLAN 222340Z 2300/2324 03003KT P6SM OVC020
     FM230300 00000KT P6SM SCT020
     FM231000 00000KT 4SM BR SCT005
     FM231500 18007KT P6SM SCT250=



000
FTUS43 KGRR 222100 AAA
TAFJXN
TAF AMD
KJXN 222137Z 2222/2318 36006KT P6SM BKN020
     FM230000 VRB03KT P6SM SCT020=



000
FTUS43 KGRR 222100 AAA
TAFBTL
TAF AMD
KBTL 222137Z 2222/2318 03004KT P6SM BKN020
     FM230000 VRB03KT P6SM SCT020=



000
FTUS43 KGRR 221700
TAFGRR
TAF
KGRR 221740Z 2218/2318 10007KT P6SM SCT025=



000
FTUS43 KGRR 221700
TAFAZO
TAF
KAZO 221740Z 2218/2318 07005KT P6SM BKN020
     FM222100 VRB03KT P6SM SCT020=



000
FTUS43 KGRR 221700
TAFJXN
TAF
KJXN 221740Z 2218/2318 36006KT P6SM BKN015
     FM222100 VRB03KT P6SM SCT020=



000
FTUS43 KGRR 221700
TAFLAN
TAF
KLAN 221740Z 2218/2318 02006KT P6SM OVC020
     FM222300 VRB03KT P6SM SCT020=



000
FTUS43 KGRR 221700
TAFLAN
TAF
KLAN 221740Z 2218/2318 02006KT P6SM OVC020
     FM222300 VRB03KT P6SM SCT020=



000
FTUS43 KGRR 221700
TAFMKG
TAF
KMKG 221740Z 2218/2318 VRB03KT P6SM SKC=



000
FTUS43 KGRR 221700
TAFBTL
TAF
KBTL 221740Z 2218/2318 03004KT P6SM OVC015
     FM222200 VRB03KT P6SM SCT015=



000
FTUS43 KGRR 221700
TAFAZO
TAF
KAZO 221740Z 2218/2318 07005KT P6SM BKN020
     FM222100 VRB03KT P6SM SCT020=



000
FTUS43 KGRR 221700
TAFGRR
TAF
KGRR 221740Z 2218/2318 10007KT P6SM SCT025=



000
FTUS43 KGRR 221700
TAFJXN
TAF
KJXN 221740Z 2218/2318 36006KT P6SM BKN015
     FM222100 VRB03KT P6SM SCT020=



000
FTUS43 KGRR 221700
TAFBTL
TAF
KBTL 221740Z 2218/2318 03004KT P6SM OVC015
     FM222200 VRB03KT P6SM SCT015=



000
FTUS43 KGRR 221700
TAFMKG
TAF
KMKG 221740Z 2218/2318 VRB03KT P6SM SKC=



000
FTUS43 KGRR 221500 AAB
TAFGRR
TAF AMD
KGRR 221553Z 2216/2312 06006KT P6SM BKN020
     FM222000 07005KT P6SM SCT035=



000
FTUS43 KGRR 221500 AAB
TAFGRR
TAF AMD
KGRR 221553Z 2216/2312 06006KT P6SM BKN020
     FM222000 07005KT P6SM SCT035=



000
FTUS43 KGRR 221500 AAB
TAFLAN
TAF AMD
KLAN 221552Z 2216/2312 01004KT P6SM OVC015
     FM222300 03005KT P6SM BKN035
     FM230100 04005KT P6SM SCT035=



000
FTUS43 KGRR 221500 AAB
TAFBTL
TAF AMD
KBTL 221552Z 2216/2312 04004KT P6SM OVC015
     FM222100 03005KT P6SM BKN035
     FM222300 04005KT P6SM SCT035=



000
FTUS43 KGRR 221500 AAB
TAFJXN
TAF AMD
KJXN 221552Z 2216/2312 04004KT P6SM OVC015
     FM222300 03005KT P6SM BKN035
     FM230100 04005KT P6SM SCT035=



000
FTUS43 KGRR 221500 AAB
TAFAZO
TAF AMD
KAZO 221551Z 2216/2312 01004KT P6SM BKN015
     FM222100 04005KT P6SM SCT035=



000
FTUS43 KGRR 221500 AAA
TAFJXN
TAF AMD
KJXN 221503Z 2215/2312 02004KT P6SM OVC015
     FM221800 03005KT P6SM BKN035
     FM222100 04005KT P6SM SCT035=



000
FTUS43 KGRR 221500 AAA
TAFLAN
TAF AMD
KLAN 221502Z 2215/2312 01004KT P6SM OVC015
     FM221800 03005KT P6SM BKN035
     FM222100 04005KT P6SM SCT035=



000
FTUS43 KGRR 221400 AAA
TAFBTL
TAF AMD
KBTL 221444Z 2215/2312 04004KT P6SM OVC015
     FM221600 03005KT P6SM BKN035
     FM221800 04005KT P6SM SCT035=



000
FTUS43 KGRR 221400 AAA
TAFGRR
TAF AMD
KGRR 221428Z 2214/2312 04006KT P6SM SCT020
      TEMPO 2214/2216 BKN020
     FM221800 07005KT P6SM SCT035=



000
FTUS43 KGRR 221300 AAA
TAFAZO
TAF AMD
KAZO 221357Z 2214/2312 01004KT P6SM BKN015
     FM221600 04005KT P6SM SCT035=



000
FTUS43 KGRR 221100
TAFAZO
TAF
KAZO 221140Z 2212/2312 03004KT P6SM SCT020
     FM221800 04005KT P6SM SCT035=



000
FTUS43 KGRR 221100
TAFJXN
TAF
KJXN 221140Z 2212/2312 34004KT P6SM OVC015
     FM221500 02004KT P6SM BKN025
     FM221700 03005KT P6SM BKN035
     FM222100 04005KT P6SM SCT035=



000
FTUS43 KGRR 221100
TAFBTL
TAF
KBTL 221140Z 2212/2312 36004KT P6SM OVC015
     FM221430 02004KT P6SM BKN025
     FM221600 03005KT P6SM BKN035
     FM221800 04005KT P6SM SCT035=



000
FTUS43 KGRR 221100
TAFLAN
TAF
KLAN 221140Z 2212/2312 34004KT P6SM OVC015
     FM221500 02004KT P6SM BKN025
     FM221630 03005KT P6SM BKN035
     FM221800 04005KT P6SM SCT035=



000
FTUS43 KGRR 221100
TAFMKG
TAF
KMKG 221140Z 2212/2312 08005KT P6SM SKC=



000
FTUS43 KGRR 221100
TAFGRR
TAF
KGRR 221140Z 2212/2312 07006KT P6SM SCT020
     FM221800 07005KT P6SM SCT035=



000
FTUS43 KGRR 221000 AAA
TAFBTL
TAF AMD
KBTL 221033Z 2211/2306 03004KT P6SM OVC019
     FM221400 06005KT P6SM BKN030
     FM221500 07006KT P6SM SCT035=



000
FTUS43 KGRR 220800 AAB
TAFLAN
TAF AMD
KLAN 220859Z 2209/2306 01004KT P6SM OVC015
     FM221400 03006KT P6SM SCT035
     FM222200 05003KT P6SM SKC=



000
FTUS43 KGRR 220800 AAB
TAFJXN
TAF AMD
KJXN 220858Z 2209/2306 02004KT P6SM OVC015
     FM221400 03006KT P6SM SCT035
     FM222200 05003KT P6SM SKC=



000
FTUS43 KGRR 220500 AAA
TAFLAN
TAF AMD
KLAN 220541Z 2206/2306 01004KT P6SM BKN020
     FM221400 03006KT P6SM SCT035
     FM222200 05003KT P6SM SKC=



000
FTUS43 KGRR 220500 AAA
TAFLAN
TAF AMD
KLAN 220541Z 2206/2306 01004KT P6SM BKN020
     FM221400 03006KT P6SM SCT035
     FM222200 05003KT P6SM SKC=



000
FTUS43 KGRR 220500 AAA
TAFJXN
TAF AMD
KJXN 220541Z 2206/2306 02004KT P6SM BKN025
     FM221400 03006KT P6SM SCT035
     FM222200 05003KT P6SM SKC=



000
FTUS43 KGRR 220500 AAA
TAFJXN
TAF AMD
KJXN 220541Z 2206/2306 02004KT P6SM BKN025
     FM221400 03006KT P6SM SCT035
     FM222200 05003KT P6SM SKC=



000
FTUS43 KGRR 220500
TAFBTL
TAF
KBTL 220540Z 2206/2306 03004KT P6SM SCT040
     FM221400 07006KT P6SM SKC=



000
FTUS43 KGRR 220500
TAFAZO
TAF
KAZO 220540Z 2206/2306 03004KT P6SM SCT040
     FM221400 08006KT P6SM SKC=



000
FTUS43 KGRR 220500
TAFLAN
TAF
KLAN 220540Z 2206/2306 04004KT P6SM SKC
     FM221000 03003KT P6SM BKN025
     FM221400 03006KT P6SM SCT035
     FM222200 05003KT P6SM SKC=



000
FTUS43 KGRR 220500
TAFJXN
TAF
KJXN 220540Z 2206/2306 02004KT P6SM SCT050
     FM221000 03003KT P6SM BKN025
     FM221400 03006KT P6SM SCT035
     FM222200 05003KT P6SM SKC=



000
FTUS43 KGRR 220500
TAFMKG
TAF
KMKG 220540Z 2206/2306 04004KT P6SM SKC
     FM221400 10006KT P6SM SKC=



000
FTUS43 KGRR 220500
TAFGRR
TAF
KGRR 220540Z 2206/2306 03004KT P6SM SKC
     FM221400 08006KT P6SM SKC=



000
FTUS43 KGRR 220500
TAFBTL
TAF
KBTL 220540Z 2206/2306 03004KT P6SM SCT040
     FM221400 07006KT P6SM SKC=



000
FTUS43 KGRR 220500
TAFAZO
TAF
KAZO 220540Z 2206/2306 03004KT P6SM SCT040
     FM221400 08006KT P6SM SKC=



000
FTUS43 KGRR 220500
TAFJXN
TAF
KJXN 220540Z 2206/2306 02004KT P6SM SCT050
     FM221000 03003KT P6SM BKN025
     FM221400 03006KT P6SM SCT035
     FM222200 05003KT P6SM SKC=



000
FTUS43 KGRR 220500
TAFLAN
TAF
KLAN 220540Z 2206/2306 04004KT P6SM SKC
     FM221000 03003KT P6SM BKN025
     FM221400 03006KT P6SM SCT035
     FM222200 05003KT P6SM SKC=



000
FTUS43 KGRR 220500
TAFGRR
TAF
KGRR 220540Z 2206/2306 03004KT P6SM SKC
     FM221400 08006KT P6SM SKC=



000
FTUS43 KGRR 220500
TAFMKG
TAF
KMKG 220540Z 2206/2306 04004KT P6SM SKC
     FM221400 10006KT P6SM SKC=



000
FTUS43 KGRR 220500 AAA
TAFLAN
TAF AMD
KLAN 220538Z 2206/2224 04004KT P6SM BKN020
     FM221000 03003KT P6SM BKN025
     FM221400 03006KT P6SM FEW035=



000
FTUS43 KGRR 220500 AAA
TAFLAN
TAF AMD
KLAN 220538Z 2206/2224 04004KT P6SM BKN020
     FM221000 03003KT P6SM BKN025
     FM221400 03006KT P6SM FEW035=



000
FTUS43 KGRR 220200 AAA
TAFJXN
TAF AMD
KJXN 220203Z 2202/2224 02004KT P6SM SCT050
     FM221000 03003KT P6SM BKN025
     FM221400 03006KT P6SM FEW035=



000
FTUS43 KGRR 220200 AAA
TAFJXN
TAF AMD
KJXN 220203Z 2202/2224 02004KT P6SM SCT050
     FM221000 03003KT P6SM BKN025
     FM221400 03006KT P6SM FEW035=



000
FTUS43 KGRR 212300
TAFBTL
TAF
KBTL 212340Z 2200/2224 03004KT P6SM SCT040
     FM221400 06006KT P6SM SKC=



000
FTUS43 KGRR 212300
TAFAZO
TAF
KAZO 212340Z 2200/2224 03004KT P6SM SCT040
     FM221400 06006KT P6SM SKC=



000
FTUS43 KGRR 212300
TAFJXN
TAF
KJXN 212340Z 2200/2224 04004KT P6SM SKC
     FM221000 03003KT P6SM BKN025
     FM221400 03006KT P6SM FEW035=



000
FTUS43 KGRR 212300
TAFGRR
TAF
KGRR 212340Z 2200/2224 03004KT P6SM SKC
     FM221400 06006KT P6SM SKC=



000
FTUS43 KGRR 212300
TAFLAN
TAF
KLAN 212340Z 2200/2224 04004KT P6SM SKC
     FM221000 03003KT P6SM BKN025
     FM221400 03006KT P6SM FEW035=



000
FTUS43 KGRR 212300
TAFMKG
TAF
KMKG 212340Z 2200/2224 04004KT P6SM SKC
     FM221400 10006KT P6SM SKC=



000
FTUS43 KGRR 211700 RRA
TAFGRR
TAF
KGRR 211742Z 2118/2218 01011G15KT P6SM BKN025
     FM211930 01010G15KT P6SM BKN035
     FM212100 03006KT P6SM SCT035=



000
FTUS43 KGRR 211700 RRA
TAFAZO
TAF
KAZO 211742Z 2118/2218 02011KT P6SM BKN025
     FM212000 02010KT P6SM BKN035
     FM212300 03006KT P6SM SCT035=



000
FTUS43 KGRR 211700 RRA
TAFMKG
TAF
KMKG 211742Z 2118/2218 01012G17KT P6SM BKN035
     FM212200 03006KT P6SM SCT035=



000
FTUS43 KGRR 211700 RRA
TAFJXN
TAF
KJXN 211742Z 2118/2218 02011KT P6SM BKN025
     FM212000 02010KT P6SM BKN035
     FM212300 03006KT P6SM SCT035=



000
FTUS43 KGRR 211700 RRA
TAFLAN
TAF
KLAN 211742Z 2118/2218 01011G15KT P6SM BKN025
     FM211930 02010KT P6SM BKN035
     FM212300 03006KT P6SM SCT035=



000
FTUS43 KGRR 211700 RRA
TAFBTL
TAF
KBTL 211742Z 2118/2218 36011KT P6SM BKN025
     FM212000 02010KT P6SM BKN035
     FM212300 03006KT P6SM SCT035=



000
FTUS43 KGRR 211500 AAC
TAFLAN
TAF AMD
KLAN 211557Z 2116/2212 01010KT P6SM BKN025
     FM220100 02006KT P6SM BKN030
     FM220600 02004KT P6SM SCT030=



000
FTUS43 KGRR 211500 AAA
TAFMKG
TAF AMD
KMKG 211557Z 2116/2212 01012KT P6SM BKN025
     FM212200 03006KT P6SM SCT035=



000
FTUS43 KGRR 211500 AAA
TAFMKG
TAF AMD
KMKG 211557Z 2116/2212 01012KT P6SM BKN025
     FM212200 03006KT P6SM SCT035=



000
FTUS43 KGRR 211500 AAC
TAFLAN
TAF AMD
KLAN 211557Z 2116/2212 01010KT P6SM BKN025
     FM220100 02006KT P6SM BKN030
     FM220600 02004KT P6SM SCT030=



000
FTUS43 KGRR 211500 AAA
TAFJXN
TAF AMD
KJXN 211556Z 2116/2212 01010G15KT P6SM BKN035
     FM220100 02006KT P6SM BKN030
     FM220600 02004KT P6SM SCT030=



000
FTUS43 KGRR 211500 AAA
TAFJXN
TAF AMD
KJXN 211556Z 2116/2212 01010G15KT P6SM BKN035
     FM220100 02006KT P6SM BKN030
     FM220600 02004KT P6SM SCT030=



000
FTUS43 KGRR 211500 AAA
TAFAZO
TAF AMD
KAZO 211555Z 2116/2212 01010KT P6SM BKN025
     FM220100 03006KT P6SM SCT035=



000
FTUS43 KGRR 211500 AAA
TAFAZO
TAF AMD
KAZO 211555Z 2116/2212 01010KT P6SM BKN025
     FM220100 03006KT P6SM SCT035=



000
FTUS43 KGRR 211400 AAB
TAFLAN
TAF AMD
KLAN 211457Z 2115/2212 01010KT P6SM VCSH BKN015
      TEMPO 2115/2117 P6SM -SHRA BKN035
     FM220100 02006KT P6SM BKN030
     FM220600 02004KT P6SM SCT030=



000
FTUS43 KGRR 211200 AAA
TAFGRR
TAF AMD
KGRR 211258Z 2113/2212 35011KT P6SM VCSH OVC015
     FM211430 01010KT P6SM BKN025
     FM212300 03006KT P6SM SCT035=



000
FTUS43 KGRR 211200 AAA
TAFLAN
TAF AMD
KLAN 211257Z 2113/2212 36010KT P6SM VCSH BKN025
      TEMPO 2113/2117 BKN035
     FM220100 02006KT P6SM BKN030
     FM220600 02004KT P6SM SCT030=



000
FTUS43 KGRR 211100 RRA
TAFBTL
TAF
KBTL 211142Z 2112/2212 35011KT P6SM VCSH OVC015
      TEMPO 2112/2115 OVC009
     FM211800 01010KT P6SM BKN025
     FM220100 03006KT P6SM SCT035=



000
FTUS43 KGRR 211100 RRA
TAFGRR
TAF
KGRR 211142Z 2112/2212 35011KT P6SM VCSH OVC015
      TEMPO 2112/2115 OVC009
     FM211800 01010KT P6SM BKN025
     FM212300 03006KT P6SM SCT035=



000
FTUS43 KGRR 211100 RRA
TAFLAN
TAF
KLAN 211142Z 2112/2212 35011KT P6SM VCSH OVC015
      TEMPO 2112/2114 OVC009
     FM211800 01010KT P6SM BKN025
     FM220100 02006KT P6SM BKN030
     FM220600 02004KT P6SM SCT030=



000
FTUS43 KGRR 211100 RRA
TAFJXN
TAF
KJXN 211142Z 2112/2212 34011KT P6SM VCSH OVC015
      TEMPO 2112/2115 5SM BR OVC009
     FM211800 01010KT P6SM BKN025
     FM220100 02006KT P6SM BKN030
     FM220600 02004KT P6SM SCT030=



000
FTUS43 KGRR 211100 RRA
TAFMKG
TAF
KMKG 211142Z 2112/2212 36011KT P6SM VCSH OVC015
     FM211800 01010KT P6SM BKN025
     FM212200 03006KT P6SM SCT035=



000
FTUS43 KGRR 211100 RRA
TAFGRR
TAF
KGRR 211142Z 2112/2212 35011KT P6SM VCSH OVC015
      TEMPO 2112/2115 OVC009
     FM211800 01010KT P6SM BKN025
     FM212300 03006KT P6SM SCT035=



000
FTUS43 KGRR 211100 RRA
TAFLAN
TAF
KLAN 211142Z 2112/2212 35011KT P6SM VCSH OVC015
      TEMPO 2112/2114 OVC009
     FM211800 01010KT P6SM BKN025
     FM220100 02006KT P6SM BKN030
     FM220600 02004KT P6SM SCT030=



000
FTUS43 KGRR 211100 RRA
TAFMKG
TAF
KMKG 211142Z 2112/2212 36011KT P6SM VCSH OVC015
     FM211800 01010KT P6SM BKN025
     FM212200 03006KT P6SM SCT035=



000
FTUS43 KGRR 211100 RRA
TAFJXN
TAF
KJXN 211142Z 2112/2212 34011KT P6SM VCSH OVC015
      TEMPO 2112/2115 5SM BR OVC009
     FM211800 01010KT P6SM BKN025
     FM220100 02006KT P6SM BKN030
     FM220600 02004KT P6SM SCT030=



000
FTUS43 KGRR 211100 RRA
TAFBTL
TAF
KBTL 211142Z 2112/2212 35011KT P6SM VCSH OVC015
      TEMPO 2112/2115 OVC009
     FM211800 01010KT P6SM BKN025
     FM220100 03006KT P6SM SCT035=



000
FTUS43 KGRR 211100 RRA
TAFAZO
TAF
KAZO 211142Z 2112/2212 35011KT P6SM VCSH OVC015
      TEMPO 2113/2115 OVC009
     FM211800 01010KT P6SM BKN025
     FM220100 03006KT P6SM SCT035=



000
FTUS43 KGRR 211100 RRA
TAFAZO
TAF
KAZO 211142Z 2112/2212 35011KT P6SM VCSH OVC015
      TEMPO 2113/2115 OVC009
     FM211800 01010KT P6SM BKN025
     FM220100 03006KT P6SM SCT035=



000
FTUS43 KGRR 210700 AAA
TAFJXN
TAF AMD
KJXN 210749Z 2108/2206 32008KT P6SM OVC015
     FM211200 34010KT P6SM BKN025
     FM212000 36010KT P6SM BKN050
     FM220000 01006KT P6SM SKC=



000
FTUS43 KGRR 210700 AAA
TAFAZO
TAF AMD
KAZO 210748Z 2108/2206 33008KT P6SM OVC015
     FM211200 35008KT P6SM BKN025
     FM211900 36010KT P6SM SCT050
     FM220000 01006KT P6SM SKC=



000
FTUS43 KGRR 210700 AAA
TAFBTL
TAF AMD
KBTL 210748Z 2108/2206 33008KT P6SM OVC015
     FM211200 35008KT P6SM BKN025
     FM211900 36010KT P6SM SCT050
     FM220000 01006KT P6SM SKC=



000
FTUS43 KGRR 210500
TAFGRR
TAF
KGRR 210540Z 2106/2206 32010KT P6SM OVC015
     FM211200 35008KT P6SM BKN025
     FM211900 01010KT P6SM SCT050
     FM220000 01006KT P6SM SKC=



000
FTUS43 KGRR 210500
TAFJXN
TAF
KJXN 210540Z 2106/2206 32008KT P6SM OVC020
     FM211200 34010KT P6SM BKN025
     FM212000 36010KT P6SM BKN050
     FM220000 01006KT P6SM SKC=



000
FTUS43 KGRR 210500
TAFMKG
TAF
KMKG 210540Z 2106/2206 34010KT P6SM -DZ OVC015
     FM211200 35010KT P6SM BKN025
     FM211900 36008KT P6SM SCT050
     FM220100 01006KT P6SM SKC=



000
FTUS43 KGRR 210500
TAFLAN
TAF
KLAN 210540Z 2106/2206 32008KT P6SM OVC015
     FM211200 32008KT P6SM BKN025
     FM212000 36010KT P6SM BKN050
     FM220000 01006KT P6SM SKC=



000
FTUS43 KGRR 210500
TAFBTL
TAF
KBTL 210540Z 2106/2206 33008KT P6SM OVC020
     FM211200 35008KT P6SM BKN025
     FM211900 36010KT P6SM SCT050
     FM220000 01006KT P6SM SKC=



000
FTUS43 KGRR 210500
TAFAZO
TAF
KAZO 210540Z 2106/2206 33008KT P6SM OVC020
     FM211200 35008KT P6SM BKN025
     FM211900 36010KT P6SM SCT050
     FM220000 01006KT P6SM SKC=



000
FTUS43 KGRR 202300
TAFBTL
TAF
KBTL 202340Z 2100/2124 31012G16KT P6SM -DZ OVC025
     FM210100 33008KT P6SM -DZ OVC015
     FM211200 35008KT P6SM BKN025
     FM212000 36010KT P6SM SCT050=



000
FTUS43 KGRR 202300
TAFAZO
TAF
KAZO 202340Z 2100/2124 31012G16KT P6SM -DZ OVC025
     FM210100 33008KT P6SM -DZ OVC015
     FM211200 35008KT P6SM BKN025
     FM212000 36010KT P6SM SCT050=



000
FTUS43 KGRR 202300
TAFMKG
TAF
KMKG 202340Z 2100/2124 33012G22KT P6SM -DZ OVC025
     FM210100 34010KT P6SM -DZ OVC015
     FM211200 35010KT P6SM BKN025
     FM211900 36008KT P6SM SCT050=



000
FTUS43 KGRR 202300
TAFGRR
TAF
KGRR 202340Z 2100/2124 31012G16KT P6SM -DZ OVC025
     FM210100 34010KT P6SM -DZ OVC015
     FM211200 35008KT P6SM BKN025
     FM212000 01010KT P6SM SCT050=



000
FTUS43 KGRR 202300
TAFLAN
TAF
KLAN 202340Z 2100/2124 31012G16KT P6SM -DZ OVC025
     FM210100 32008KT P6SM -DZ OVC015
     FM211200 32008KT P6SM BKN025
     FM212100 36010KT P6SM BKN050=



000
FTUS43 KGRR 202300
TAFJXN
TAF
KJXN 202340Z 2100/2124 31012G16KT P6SM -DZ OVC025
     FM210100 32008KT P6SM -DZ OVC015
     FM211200 34010KT P6SM BKN025
     FM212100 36010KT P6SM BKN050=



000
FTUS43 KGRR 202200 AAB
TAFJXN
TAF AMD
KJXN 202226Z 2022/2118 31012G16KT P6SM BKN050
      TEMPO 2023/2101 4SM RA OVC025
     FM210100 32010KT P6SM -DZ OVC015
     FM211200 32008KT P6SM BKN025=



000
FTUS43 KGRR 201900 AAB
TAFGRR
TAF AMD
KGRR 201945Z 2020/2118 29010G16KT P6SM BKN035
      TEMPO 2020/2022 BKN025
     FM202200 31012G16KT P6SM -DZ OVC025
     FM210100 34010KT P6SM -DZ OVC015
     FM211200 35008KT P6SM BKN025=



000
FTUS43 KGRR 201900 AAB
TAFLAN
TAF AMD
KLAN 201945Z 2020/2118 26010KT P6SM BKN035
     FM202200 31012G16KT P6SM -DZ OVC025
     FM210100 32010KT P6SM -DZ OVC015
     FM211200 32008KT P6SM BKN025=



000
FTUS43 KGRR 201900 AAA
TAFJXN
TAF AMD
KJXN 201904Z 2019/2118 27008KT P6SM BKN015
     FM202200 31012G16KT P6SM -DZ OVC025
     FM210100 32010KT P6SM -DZ OVC015
     FM211200 32008KT P6SM BKN025=



000
FTUS43 KGRR 201900 AAA
TAFBTL
TAF AMD
KBTL 201903Z 2019/2118 25008KT P6SM OVC015
     FM202000 25009KT P6SM BKN025
     FM202200 31012G16KT P6SM -DZ OVC025
     FM210100 34010KT P6SM -DZ OVC015
     FM211200 35008KT P6SM BKN025=



000
FTUS43 KGRR 201900 AAA
TAFLAN
TAF AMD
KLAN 201903Z 2019/2118 26008KT P6SM BKN025
     FM202200 31012G16KT P6SM -DZ OVC025
     FM210100 32010KT P6SM -DZ OVC015
     FM211200 32008KT P6SM BKN025=



000
FTUS43 KGRR 201900 AAA
TAFGRR
TAF AMD
KGRR 201902Z 2019/2118 24008KT P6SM BKN025
     FM202200 31012G16KT P6SM -DZ OVC025
     FM210100 34010KT P6SM -DZ OVC015
     FM211200 35008KT P6SM BKN025=



000
FTUS43 KGRR 201900 AAA
TAFAZO
TAF AMD
KAZO 201902Z 2019/2118 24008KT P6SM OVC025
     FM202200 31012G16KT P6SM -DZ OVC025
     FM210100 34010KT P6SM -DZ OVC015
     FM211200 35008KT P6SM BKN025=



000
FTUS43 KGRR 201700
TAFAZO
TAF
KAZO 201740Z 2018/2118 24008KT P6SM OVC015
     FM201900 25009KT P6SM BKN035
     FM202200 31012G16KT P6SM -DZ OVC025
     FM210100 34010KT P6SM -DZ OVC015
     FM211200 35008KT P6SM BKN025=



000
FTUS43 KGRR 201700
TAFLAN
TAF
KLAN 201740Z 2018/2118 26008KT P6SM OVC025
     FM201845 27008KT P6SM BKN035
     FM202200 31012G16KT P6SM -DZ OVC025
     FM210100 32010KT P6SM -DZ OVC015
     FM211200 32008KT P6SM BKN025=



000
FTUS43 KGRR 201700
TAFBTL
TAF
KBTL 201740Z 2018/2118 24008KT P6SM OVC015
     FM201845 25009KT P6SM BKN035
     FM202200 31012G16KT P6SM -DZ OVC025
     FM210100 34010KT P6SM -DZ OVC015
     FM211200 35008KT P6SM BKN025=



000
FTUS43 KGRR 201700
TAFGRR
TAF
KGRR 201740Z 2018/2118 27008KT P6SM BKN035
     FM202200 31012G16KT P6SM -DZ OVC025
     FM210100 34010KT P6SM -DZ OVC015
     FM211200 35008KT P6SM BKN025=



000
FTUS43 KGRR 201700
TAFJXN
TAF
KJXN 201740Z 2018/2118 27008KT P6SM BKN025
     FM202200 31012G16KT P6SM -DZ OVC025
     FM210100 32010KT P6SM -DZ OVC015
     FM211200 32008KT P6SM BKN025=



000
FTUS43 KGRR 201700
TAFMKG
TAF
KMKG 201740Z 2018/2118 32008KT P6SM OVC050
     FM202200 33012G22KT P6SM VCSH OVC025
     FM210100 34010KT P6SM -DZ OVC015
     FM211200 35008KT P6SM BKN025=



000
FTUS43 KGRR 201600 AAA
TAFJXN
TAF AMD
KJXN 201607Z 2016/2112 24013KT P6SM VCSH BKN050
     FM201700 24012KT P6SM VCTS BKN015CB BKN070
     FM202100 30008KT P6SM OVC025=



000
FTUS43 KGRR 201600 AAA
TAFBTL
TAF AMD
KBTL 201605Z 2016/2112 25011KT P6SM VCTS BKN015CB BKN070
     FM201800 27011KT P6SM VCSH BKN015
     FM202000 30008KT P6SM OVC035
     FM210100 32007KT P6SM OVC025=



000
FTUS43 KGRR 201500 AAA
TAFLAN
TAF AMD
KLAN 201519Z 2015/2112 24009KT P6SM VCSH BKN015
     FM201800 25007KT P6SM VCSH BKN025
     FM202100 30008KT P6SM OVC025=



000
FTUS43 KGRR 201500 AAA
TAFAZO
TAF AMD
KAZO 201518Z 2015/2112 24007KT P6SM VCSH BKN015
     FM202000 30008KT P6SM OVC035
     FM210100 32007KT P6SM OVC025=



000
FTUS43 KGRR 201500 AAA
TAFGRR
TAF AMD
KGRR 201517Z 2015/2112 23007KT P6SM BKN015
     FM201800 27008KT P6SM BKN025
     FM202200 30012KT P6SM OVC025=



000
FTUS43 KGRR 201100
TAFMKG
TAF
KMKG 201127Z 2012/2112 22005KT P6SM SCT070
     FM201500 32008KT P6SM OVC050
     FM202200 33012G22KT P6SM OVC025
     FM210100 34010KT 5SM -SHRA BR OVC015
     FM210400 35008KT P6SM OVC024=



000
FTUS43 KGRR 201100
TAFJXN
TAF
KJXN 201127Z 2012/2112 22013KT P6SM VCSH BKN050
     FM201500 25007KT P6SM VCTS SCT035CB BKN070
     FM202100 30008KT P6SM OVC025=



000
FTUS43 KGRR 201100
TAFBTL
TAF
KBTL 201127Z 2012/2112 20007KT P6SM VCSH BKN070
     FM201400 25007KT P6SM VCTS SCT035CB BKN070
     FM202000 30008KT P6SM OVC035
     FM210100 32007KT P6SM OVC025=



000
FTUS43 KGRR 201100
TAFGRR
TAF
KGRR 201127Z 2012/2112 19007KT P6SM SCT070
     FM201600 27008KT P6SM BKN050
     FM202200 30012KT P6SM OVC025=



000
FTUS43 KGRR 201100
TAFAZO
TAF
KAZO 201127Z 2012/2112 19008KT P6SM VCSH BKN070
     FM201400 25007KT P6SM VCTS SCT035CB BKN070
     FM202000 30008KT P6SM OVC035
     FM210100 32007KT P6SM OVC025=



000
FTUS43 KGRR 201100
TAFLAN
TAF
KLAN 201127Z 2012/2112 20009KT P6SM FEW060 FEW070
     FM201500 25007KT P6SM VCTS SCT035CB BKN070
     FM202100 30008KT P6SM OVC025=



000
FTUS43 KGRR 200700 AAA
TAFGRR
TAF AMD
KGRR 200733Z 2008/2106 21010KT P6SM OVC040
     FM201200 23007KT 5SM BR VCSH OVC025
     FM201600 30010KT P6SM OVC025=



000
FTUS43 KGRR 200700 AAA
TAFGRR
TAF AMD
KGRR 200733Z 2008/2106 21010KT P6SM OVC040
     FM201200 23007KT 5SM BR VCSH OVC025
     FM201600 30010KT P6SM OVC025=



000
FTUS43 KGRR 200700 AAA
TAFMKG
TAF AMD
KMKG 200732Z 2008/2106 21009KT P6SM OVC050
     FM201200 26006KT 5SM BR VCSH OVC025
     FM201600 30010G20KT P6SM OVC025
     FM202200 31007KT P6SM OVC025=



000
FTUS43 KGRR 200700 AAA
TAFMKG
TAF AMD
KMKG 200732Z 2008/2106 21009KT P6SM OVC050
     FM201200 26006KT 5SM BR VCSH OVC025
     FM201600 30010G20KT P6SM OVC025
     FM202200 31007KT P6SM OVC025=



000
FTUS43 KGRR 200500
TAFJXN
TAF
KJXN 200540Z 2006/2106 21007KT P6SM VCSH BKN070
     FM201600 24009KT P6SM VCSH OVC025
     FM202100 29008KT P6SM OVC025=



000
FTUS43 KGRR 200500
TAFGRR
TAF
KGRR 200540Z 2006/2106 21010KT P6SM VCSH OVC035
     FM201200 23007KT 5SM BR VCSH OVC025
     FM201600 30010KT P6SM OVC025=



000
FTUS43 KGRR 200500
TAFBTL
TAF
KBTL 200540Z 2006/2106 21010KT P6SM VCSH OVC035
     FM201400 24008KT 5SM BR VCSH OVC025
     FM202000 29009KT P6SM OVC025=



000
FTUS43 KGRR 200500
TAFLAN
TAF
KLAN 200540Z 2006/2106 20008KT P6SM VCSH BKN070
     FM201600 24010KT P6SM VCSH OVC025
     FM202100 29008KT P6SM OVC025=



000
FTUS43 KGRR 200500
TAFMKG
TAF
KMKG 200540Z 2006/2106 21012G21KT P6SM VCSH OVC035
     FM200900 24009KT P6SM VCSH OVC025
     FM201200 26006KT 5SM BR VCSH OVC025
     FM201600 30010G20KT P6SM OVC025
     FM202200 31007KT P6SM OVC025=



000
FTUS43 KGRR 200500
TAFAZO
TAF
KAZO 200540Z 2006/2106 21009KT P6SM VCSH OVC035
     FM201400 24007KT 5SM BR VCSH OVC025
     FM202000 29009KT P6SM OVC025=



    US Dept of Commerce
    National Oceanic and Atmospheric Administration
    National Weather Service
    1325 East West Highway
    Silver Spring, MD 20910
    Page Author: NWS Internet Services Team
Disclaimer
Information Quality
Credits
Glossary
Privacy Policy
Freedom of Information Act (FOIA)
About Us
Career Opportunities